sensor_id;sensor_type;location;lat;lon;timestamp;temperature;humidity
17994;DHT22;9122;48.406;9.984;2023-01-08T00:02:17;5.90;95.60
17994;DHT22;9122;48.406;9.984;2023-01-08T00:05:01;5.90;95.60
17994;DHT22;9122;48.406;9.984;2023-01-08T00:07:46;5.90;95.70
17994;DHT22;9122;48.406;9.984;2023-01-08T00:10:31;5.80;95.70
17994;DHT22;9122;48.406;9.984;2023-01-08T00:13:15;5.80;95.60
17994;DHT22;9122;48.406;9.984;2023-01-08T00:16:10;5.80;95.70
17994;DHT22;9122;48.406;9.984;2023-01-08T00:18:54;5.80;95.70
17994;DHT22;9122;48.406;9.984;2023-01-08T00:21:39;5.70;95.80
17994;DHT22;9122;48.406;9.984;2023-01-08T00:24:23;5.70;95.90
17994;DHT22;9122;48.406;9.984;2023-01-08T00:27:08;5.70;95.80
17994;DHT22;9122;48.406;9.984;2023-01-08T00:29:52;5.70;95.70
17994;DHT22;9122;48.406;9.984;2023-01-08T00:32:37;5.70;95.60
17994;DHT22;9122;48.406;9.984;2023-01-08T00:35:22;5.70;95.60
17994;DHT22;9122;48.406;9.984;2023-01-08T00:38:06;5.70;95.50
17994;DHT22;9122;48.406;9.984;2023-01-08T00:40:51;5.60;95.60
17994;DHT22;9122;48.406;9.984;2023-01-08T00:43:37;5.60;95.70
17994;DHT22;9122;48.406;9.984;2023-01-08T00:46:21;5.60;95.80
17994;DHT22;9122;48.406;9.984;2023-01-08T00:49:05;5.60;95.80
17994;DHT22;9122;48.406;9.984;2023-01-08T00:51:50;5.60;95.80
17994;DHT22;9122;48.406;9.984;2023-01-08T00:54:35;6.30;96.00
17994;DHT22;9122;48.406;9.984;2023-01-08T00:57:19;5.50;95.70
17994;DHT22;9122;48.406;9.984;2023-01-08T01:00:05;5.50;95.70
17994;DHT22;9122;48.406;9.984;2023-01-08T01:02:52;5.50;95.60
17994;DHT22;9122;48.406;9.984;2023-01-08T01:05:36;5.50;95.60
17994;DHT22;9122;48.406;9.984;2023-01-08T01:08:21;5.50;95.50
17994;DHT22;9122;48.406;9.984;2023-01-08T01:11:14;5.40;95.40
17994;DHT22;9122;48.406;9.984;2023-01-08T01:13:59;5.40;95.50
17994;DHT22;9122;48.406;9.984;2023-01-08T01:16:44;5.40;95.60
17994;DHT22;9122;48.406;9.984;2023-01-08T01:19:30;5.90;95.60
17994;DHT22;9122;48.406;9.984;2023-01-08T01:22:15;5.40;95.00
17994;DHT22;9122;48.406;9.984;2023-01-08T01:25:01;5.30;94.60
17994;DHT22;9122;48.406;9.984;2023-01-08T01:27:46;5.30;94.50
17994;DHT22;9122;48.406;9.984;2023-01-08T01:30:30;5.20;94.40
17994;DHT22;9122;48.406;9.984;2023-01-08T01:33:14;5.90;94.80
17994;DHT22;9122;48.406;9.984;2023-01-08T01:36:01;5.10;94.80
17994;DHT22;9122;48.406;9.984;2023-01-08T01:38:47;5.00;95.00
17994;DHT22;9122;48.406;9.984;2023-01-08T01:41:36;5.50;95.50
17994;DHT22;9122;48.406;9.984;2023-01-08T01:44:43;5.00;95.60
17994;DHT22;9122;48.406;9.984;2023-01-08T01:47:37;5.00;95.80
17994;DHT22;9122;48.406;9.984;2023-01-08T01:53:30;5.00;96.10
17994;DHT22;9122;48.406;9.984;2023-01-08T01:56:17;5.00;96.20
17994;DHT22;9122;48.406;9.984;2023-01-08T01:59:03;4.90;96.20
17994;DHT22;9122;48.406;9.984;2023-01-08T02:01:48;4.90;96.30
17994;DHT22;9122;48.406;9.984;2023-01-08T02:04:33;4.90;96.40
17994;DHT22;9122;48.406;9.984;2023-01-08T02:10:32;4.80;96.80
17994;DHT22;9122;48.406;9.984;2023-01-08T02:13:24;4.70;96.50
17994;DHT22;9122;48.406;9.984;2023-01-08T02:16:17;4.90;96.60
17994;DHT22;9122;48.406;9.984;2023-01-08T02:25:37;4.70;96.70
17994;DHT22;9122;48.406;9.984;2023-01-08T02:28:25;4.70;96.80
17994;DHT22;9122;48.406;9.984;2023-01-08T02:31:11;4.70;96.90
17994;DHT22;9122;48.406;9.984;2023-01-08T02:33:56;4.70;96.80
17994;DHT22;9122;48.406;9.984;2023-01-08T02:36:44;4.60;96.80
17994;DHT22;9122;48.406;9.984;2023-01-08T02:39:50;4.60;96.90
17994;DHT22;9122;48.406;9.984;2023-01-08T02:42:58;4.60;97.00
17994;DHT22;9122;48.406;9.984;2023-01-08T02:45:47;4.60;97.10
17994;DHT22;9122;48.406;9.984;2023-01-08T02:48:39;4.60;97.00
17994;DHT22;9122;48.406;9.984;2023-01-08T02:51:41;4.60;97.00
17994;DHT22;9122;48.406;9.984;2023-01-08T02:54:31;4.60;97.00
17994;DHT22;9122;48.406;9.984;2023-01-08T02:57:20;4.60;97.00
17994;DHT22;9122;48.406;9.984;2023-01-08T03:00:05;4.60;96.90
17994;DHT22;9122;48.406;9.984;2023-01-08T03:02:52;4.60;96.90
17994;DHT22;9122;48.406;9.984;2023-01-08T03:05:41;4.60;96.90
17994;DHT22;9122;48.406;9.984;2023-01-08T03:08:27;4.60;96.90
17994;DHT22;9122;48.406;9.984;2023-01-08T03:11:14;4.80;97.00
17994;DHT22;9122;48.406;9.984;2023-01-08T03:14:21;4.60;97.00
17994;DHT22;9122;48.406;9.984;2023-01-08T03:17:18;4.60;97.00
17994;DHT22;9122;48.406;9.984;2023-01-08T03:20:12;4.60;97.10
17994;DHT22;9122;48.406;9.984;2023-01-08T03:22:59;4.60;97.10
17994;DHT22;9122;48.406;9.984;2023-01-08T03:25:46;4.60;97.20
17994;DHT22;9122;48.406;9.984;2023-01-08T03:28:36;4.60;97.30
17994;DHT22;9122;48.406;9.984;2023-01-08T03:31:24;4.60;97.40
17994;DHT22;9122;48.406;9.984;2023-01-08T03:34:11;5.00;97.90
17994;DHT22;9122;48.406;9.984;2023-01-08T03:36:58;4.60;97.50
17994;DHT22;9122;48.406;9.984;2023-01-08T03:39:50;4.60;97.60
17994;DHT22;9122;48.406;9.984;2023-01-08T03:42:36;4.60;97.60
17994;DHT22;9122;48.406;9.984;2023-01-08T03:45:25;4.60;97.60
17994;DHT22;9122;48.406;9.984;2023-01-08T03:48:11;4.60;97.60
17994;DHT22;9122;48.406;9.984;2023-01-08T03:50:55;4.70;97.60
17994;DHT22;9122;48.406;9.984;2023-01-08T03:53:40;4.60;97.60
17994;DHT22;9122;48.406;9.984;2023-01-08T03:56:25;4.60;97.60
17994;DHT22;9122;48.406;9.984;2023-01-08T03:59:10;4.60;97.70
17994;DHT22;9122;48.406;9.984;2023-01-08T04:01:55;4.60;97.70
17994;DHT22;9122;48.406;9.984;2023-01-08T04:04:39;4.50;97.70
17994;DHT22;9122;48.406;9.984;2023-01-08T04:07:24;4.70;97.70
17994;DHT22;9122;48.406;9.984;2023-01-08T04:10:08;4.70;97.70
17994;DHT22;9122;48.406;9.984;2023-01-08T04:12:53;4.50;97.60
17994;DHT22;9122;48.406;9.984;2023-01-08T04:15:37;4.60;97.60
17994;DHT22;9122;48.406;9.984;2023-01-08T04:18:22;4.50;97.60
17994;DHT22;9122;48.406;9.984;2023-01-08T04:21:07;4.50;97.60
17994;DHT22;9122;48.406;9.984;2023-01-08T04:23:51;4.50;97.60
17994;DHT22;9122;48.406;9.984;2023-01-08T04:26:36;4.60;97.60
17994;DHT22;9122;48.406;9.984;2023-01-08T04:29:20;4.50;97.60
17994;DHT22;9122;48.406;9.984;2023-01-08T04:32:04;4.50;97.60
17994;DHT22;9122;48.406;9.984;2023-01-08T04:34:48;4.50;97.60
17994;DHT22;9122;48.406;9.984;2023-01-08T04:37:33;4.90;97.80
17994;DHT22;9122;48.406;9.984;2023-01-08T04:40:17;4.50;97.70
17994;DHT22;9122;48.406;9.984;2023-01-08T04:43:02;4.50;97.70
17994;DHT22;9122;48.406;9.984;2023-01-08T04:45:47;4.50;97.80
17994;DHT22;9122;48.406;9.984;2023-01-08T04:48:32;4.50;97.80
17994;DHT22;9122;48.406;9.984;2023-01-08T04:51:16;4.50;97.80
17994;DHT22;9122;48.406;9.984;2023-01-08T04:54:01;4.50;97.80
17994;DHT22;9122;48.406;9.984;2023-01-08T04:56:45;4.60;97.90
17994;DHT22;9122;48.406;9.984;2023-01-08T04:59:32;4.50;97.90
17994;DHT22;9122;48.406;9.984;2023-01-08T05:02:16;4.50;97.90
17994;DHT22;9122;48.406;9.984;2023-01-08T05:05:01;4.50;98.30
17994;DHT22;9122;48.406;9.984;2023-01-08T05:07:45;4.70;98.00
17994;DHT22;9122;48.406;9.984;2023-01-08T05:10:29;4.50;98.20
17994;DHT22;9122;48.406;9.984;2023-01-08T05:13:14;4.60;98.00
17994;DHT22;9122;48.406;9.984;2023-01-08T05:15:59;4.50;97.80
17994;DHT22;9122;48.406;9.984;2023-01-08T05:18:44;4.50;97.70
17994;DHT22;9122;48.406;9.984;2023-01-08T05:21:29;4.70;97.70
17994;DHT22;9122;48.406;9.984;2023-01-08T05:24:13;4.50;97.50
17994;DHT22;9122;48.406;9.984;2023-01-08T05:26:57;4.50;97.50
17994;DHT22;9122;48.406;9.984;2023-01-08T05:29:42;4.50;97.50
17994;DHT22;9122;48.406;9.984;2023-01-08T05:32:26;4.70;97.60
17994;DHT22;9122;48.406;9.984;2023-01-08T05:35:11;4.50;97.50
17994;DHT22;9122;48.406;9.984;2023-01-08T05:38:02;4.50;97.60
17994;DHT22;9122;48.406;9.984;2023-01-08T05:40:46;4.50;97.60
17994;DHT22;9122;48.406;9.984;2023-01-08T05:43:31;4.50;97.60
17994;DHT22;9122;48.406;9.984;2023-01-08T05:46:16;4.50;97.60
17994;DHT22;9122;48.406;9.984;2023-01-08T05:49:00;4.70;98.00
17994;DHT22;9122;48.406;9.984;2023-01-08T05:51:45;4.40;97.70
17994;DHT22;9122;48.406;9.984;2023-01-08T05:54:29;4.40;97.70
17994;DHT22;9122;48.406;9.984;2023-01-08T05:57:14;4.50;97.70
17994;DHT22;9122;48.406;9.984;2023-01-08T05:59:59;4.50;97.80
17994;DHT22;9122;48.406;9.984;2023-01-08T06:02:47;4.50;97.90
17994;DHT22;9122;48.406;9.984;2023-01-08T06:05:36;4.50;98.00
17994;DHT22;9122;48.406;9.984;2023-01-08T06:08:20;4.50;98.00
17994;DHT22;9122;48.406;9.984;2023-01-08T06:11:07;4.50;98.10
17994;DHT22;9122;48.406;9.984;2023-01-08T06:13:52;4.50;98.10
17994;DHT22;9122;48.406;9.984;2023-01-08T06:16:36;4.50;98.10
17994;DHT22;9122;48.406;9.984;2023-01-08T06:19:20;4.50;98.10
17994;DHT22;9122;48.406;9.984;2023-01-08T06:22:06;4.50;98.10
17994;DHT22;9122;48.406;9.984;2023-01-08T06:24:50;4.50;98.20
17994;DHT22;9122;48.406;9.984;2023-01-08T06:27:34;4.50;98.20
17994;DHT22;9122;48.406;9.984;2023-01-08T06:30:22;4.50;98.20
17994;DHT22;9122;48.406;9.984;2023-01-08T06:33:07;4.50;98.20
17994;DHT22;9122;48.406;9.984;2023-01-08T06:35:51;4.50;98.10
17994;DHT22;9122;48.406;9.984;2023-01-08T06:38:41;4.50;98.10
17994;DHT22;9122;48.406;9.984;2023-01-08T06:41:26;4.50;98.00
17994;DHT22;9122;48.406;9.984;2023-01-08T06:44:16;4.50;98.00
17994;DHT22;9122;48.406;9.984;2023-01-08T06:47:00;4.50;98.00
17994;DHT22;9122;48.406;9.984;2023-01-08T06:49:45;4.50;98.00
17994;DHT22;9122;48.406;9.984;2023-01-08T06:52:29;4.50;98.00
17994;DHT22;9122;48.406;9.984;2023-01-08T06:55:14;4.50;98.00
17994;DHT22;9122;48.406;9.984;2023-01-08T06:57:59;4.50;98.00
17994;DHT22;9122;48.406;9.984;2023-01-08T07:00:43;4.50;98.10
17994;DHT22;9122;48.406;9.984;2023-01-08T07:03:30;4.50;98.00
17994;DHT22;9122;48.406;9.984;2023-01-08T07:06:19;4.50;98.00
17994;DHT22;9122;48.406;9.984;2023-01-08T07:09:04;4.70;98.10
17994;DHT22;9122;48.406;9.984;2023-01-08T07:11:48;4.50;98.00
17994;DHT22;9122;48.406;9.984;2023-01-08T07:14:34;4.80;98.10
17994;DHT22;9122;48.406;9.984;2023-01-08T07:17:18;4.40;97.90
17994;DHT22;9122;48.406;9.984;2023-01-08T07:20:03;4.40;98.00
17994;DHT22;9122;48.406;9.984;2023-01-08T07:22:51;4.40;98.00
17994;DHT22;9122;48.406;9.984;2023-01-08T07:25:35;4.40;98.10
17994;DHT22;9122;48.406;9.984;2023-01-08T07:28:20;4.40;98.40
17994;DHT22;9122;48.406;9.984;2023-01-08T07:31:05;4.40;98.20
17994;DHT22;9122;48.406;9.984;2023-01-08T07:33:49;4.40;98.20
17994;DHT22;9122;48.406;9.984;2023-01-08T07:36:34;4.40;98.30
17994;DHT22;9122;48.406;9.984;2023-01-08T07:39:19;4.40;98.40
17994;DHT22;9122;48.406;9.984;2023-01-08T07:42:03;4.40;98.40
17994;DHT22;9122;48.406;9.984;2023-01-08T07:44:47;4.40;98.40
17994;DHT22;9122;48.406;9.984;2023-01-08T07:47:32;4.40;98.40
17994;DHT22;9122;48.406;9.984;2023-01-08T07:50:16;4.50;98.50
17994;DHT22;9122;48.406;9.984;2023-01-08T07:53:12;4.50;98.50
17994;DHT22;9122;48.406;9.984;2023-01-08T07:56:11;4.50;98.60
17994;DHT22;9122;48.406;9.984;2023-01-08T07:58:55;4.50;98.70
17994;DHT22;9122;48.406;9.984;2023-01-08T08:01:40;4.50;98.90
17994;DHT22;9122;48.406;9.984;2023-01-08T08:04:24;4.50;99.00
17994;DHT22;9122;48.406;9.984;2023-01-08T08:07:09;4.50;99.10
17994;DHT22;9122;48.406;9.984;2023-01-08T08:09:53;4.50;99.60
17994;DHT22;9122;48.406;9.984;2023-01-08T08:12:38;4.60;99.30
17994;DHT22;9122;48.406;9.984;2023-01-08T08:15:22;4.60;99.40
17994;DHT22;9122;48.406;9.984;2023-01-08T08:18:10;4.60;99.40
17994;DHT22;9122;48.406;9.984;2023-01-08T08:20:54;4.60;99.50
17994;DHT22;9122;48.406;9.984;2023-01-08T08:23:39;4.70;99.60
17994;DHT22;9122;48.406;9.984;2023-01-08T08:26:24;4.70;99.80
17994;DHT22;9122;48.406;9.984;2023-01-08T08:29:09;4.70;99.70
17994;DHT22;9122;48.406;9.984;2023-01-08T08:31:54;4.70;99.80
17994;DHT22;9122;48.406;9.984;2023-01-08T08:34:38;4.80;99.80
17994;DHT22;9122;48.406;9.984;2023-01-08T08:37:23;4.80;99.90
17994;DHT22;9122;48.406;9.984;2023-01-08T08:40:08;4.80;99.90
17994;DHT22;9122;48.406;9.984;2023-01-08T08:42:56;4.90;99.90
17994;DHT22;9122;48.406;9.984;2023-01-08T08:45:41;4.90;99.90
17994;DHT22;9122;48.406;9.984;2023-01-08T08:48:26;4.90;99.90
17994;DHT22;9122;48.406;9.984;2023-01-08T08:53:59;5.00;99.90
17994;DHT22;9122;48.406;9.984;2023-01-08T08:56:43;5.00;99.90
17994;DHT22;9122;48.406;9.984;2023-01-08T08:59:28;5.00;99.90
17994;DHT22;9122;48.406;9.984;2023-01-08T09:02:13;5.10;99.90
17994;DHT22;9122;48.406;9.984;2023-01-08T09:04:57;5.00;99.90
17994;DHT22;9122;48.406;9.984;2023-01-08T09:07:42;5.20;99.90
17994;DHT22;9122;48.406;9.984;2023-01-08T09:10:27;5.10;99.90
17994;DHT22;9122;48.406;9.984;2023-01-08T09:13:11;5.20;99.90
17994;DHT22;9122;48.406;9.984;2023-01-08T09:16:02;5.90;99.90
17994;DHT22;9122;48.406;9.984;2023-01-08T09:18:47;5.20;99.90
17994;DHT22;9122;48.406;9.984;2023-01-08T09:21:32;5.20;99.90
17994;DHT22;9122;48.406;9.984;2023-01-08T09:24:17;5.20;99.90
17994;DHT22;9122;48.406;9.984;2023-01-08T09:27:01;5.20;99.90
17994;DHT22;9122;48.406;9.984;2023-01-08T09:29:46;5.20;99.90
17994;DHT22;9122;48.406;9.984;2023-01-08T09:32:31;5.30;99.90
17994;DHT22;9122;48.406;9.984;2023-01-08T09:35:15;5.30;99.90
17994;DHT22;9122;48.406;9.984;2023-01-08T09:38:00;5.20;99.90
17994;DHT22;9122;48.406;9.984;2023-01-08T09:40:57;5.30;99.90
17994;DHT22;9122;48.406;9.984;2023-01-08T09:43:48;5.30;99.90
17994;DHT22;9122;48.406;9.984;2023-01-08T09:46:35;5.30;99.90
17994;DHT22;9122;48.406;9.984;2023-01-08T09:49:25;5.80;99.90
17994;DHT22;9122;48.406;9.984;2023-01-08T09:52:14;5.30;99.90
17994;DHT22;9122;48.406;9.984;2023-01-08T09:54:59;6.00;99.90
17994;DHT22;9122;48.406;9.984;2023-01-08T09:57:44;5.40;99.90
17994;DHT22;9122;48.406;9.984;2023-01-08T10:00:32;5.40;99.90
17994;DHT22;9122;48.406;9.984;2023-01-08T10:03:17;5.40;99.90
17994;DHT22;9122;48.406;9.984;2023-01-08T10:06:10;5.40;99.90
17994;DHT22;9122;48.406;9.984;2023-01-08T10:08:55;5.50;99.90
17994;DHT22;9122;48.406;9.984;2023-01-08T10:11:46;5.50;99.90
17994;DHT22;9122;48.406;9.984;2023-01-08T10:14:36;5.50;99.90
17994;DHT22;9122;48.406;9.984;2023-01-08T10:17:35;5.50;99.90
17994;DHT22;9122;48.406;9.984;2023-01-08T10:20:23;5.50;99.90
17994;DHT22;9122;48.406;9.984;2023-01-08T10:23:12;5.50;99.90
17994;DHT22;9122;48.406;9.984;2023-01-08T10:25:59;5.60;99.90
17994;DHT22;9122;48.406;9.984;2023-01-08T10:28:45;5.60;99.90
17994;DHT22;9122;48.406;9.984;2023-01-08T10:31:32;5.60;99.90
17994;DHT22;9122;48.406;9.984;2023-01-08T10:34:38;5.70;99.90
17994;DHT22;9122;48.406;9.984;2023-01-08T10:40:47;5.70;99.90
17994;DHT22;9122;48.406;9.984;2023-01-08T10:49:38;5.80;99.90
17994;DHT22;9122;48.406;9.984;2023-01-08T10:52:59;5.90;99.90
17994;DHT22;9122;48.406;9.984;2023-01-08T10:56:01;6.20;99.90
17994;DHT22;9122;48.406;9.984;2023-01-08T10:58:48;5.90;99.90
17994;DHT22;9122;48.406;9.984;2023-01-08T11:01:36;5.90;99.90
17994;DHT22;9122;48.406;9.984;2023-01-08T11:04:34;5.90;99.90
17994;DHT22;9122;48.406;9.984;2023-01-08T11:07:40;5.90;99.90
17994;DHT22;9122;48.406;9.984;2023-01-08T11:10:26;5.90;99.90
17994;DHT22;9122;48.406;9.984;2023-01-08T11:13:26;6.00;99.90
17994;DHT22;9122;48.406;9.984;2023-01-08T11:16:11;5.90;99.90
17994;DHT22;9122;48.406;9.984;2023-01-08T11:18:58;6.20;99.90
17994;DHT22;9122;48.406;9.984;2023-01-08T11:21:54;6.00;99.90
17994;DHT22;9122;48.406;9.984;2023-01-08T11:24:41;6.10;99.90
17994;DHT22;9122;48.406;9.984;2023-01-08T11:30:25;6.10;99.90
17994;DHT22;9122;48.406;9.984;2023-01-08T11:33:18;6.20;99.90
17994;DHT22;9122;48.406;9.984;2023-01-08T11:36:21;6.20;99.90
17994;DHT22;9122;48.406;9.984;2023-01-08T11:39:08;6.20;99.90
17994;DHT22;9122;48.406;9.984;2023-01-08T11:48:18;6.30;99.90
17994;DHT22;9122;48.406;9.984;2023-01-08T11:51:35;6.40;99.90
17994;DHT22;9122;48.406;9.984;2023-01-08T12:03:48;6.50;99.90
17994;DHT22;9122;48.406;9.984;2023-01-08T12:09:42;6.50;99.90
17994;DHT22;9122;48.406;9.984;2023-01-08T12:15:53;6.60;99.90
17994;DHT22;9122;48.406;9.984;2023-01-08T12:35:45;6.80;99.90
17994;DHT22;9122;48.406;9.984;2023-01-08T12:38:54;7.00;99.90
17994;DHT22;9122;48.406;9.984;2023-01-08T12:41:42;6.00;99.90
17994;DHT22;9122;48.406;9.984;2023-01-08T12:44:29;6.80;99.90
17994;DHT22;9122;48.406;9.984;2023-01-08T12:47:21;6.90;99.90
17994;DHT22;9122;48.406;9.984;2023-01-08T12:56:36;7.00;99.90
17994;DHT22;9122;48.406;9.984;2023-01-08T12:59:44;7.00;99.90
17994;DHT22;9122;48.406;9.984;2023-01-08T13:08:32;7.10;99.90
17994;DHT22;9122;48.406;9.984;2023-01-08T13:11:27;7.10;99.90
17994;DHT22;9122;48.406;9.984;2023-01-08T13:14:12;7.10;99.90
17994;DHT22;9122;48.406;9.984;2023-01-08T13:17:05;7.20;99.90
17994;DHT22;9122;48.406;9.984;2023-01-08T13:20:03;7.20;99.90
17994;DHT22;9122;48.406;9.984;2023-01-08T13:23:00;7.20;99.90
17994;DHT22;9122;48.406;9.984;2023-01-08T13:25:54;7.20;99.90
17994;DHT22;9122;48.406;9.984;2023-01-08T13:28:44;7.20;99.90
17994;DHT22;9122;48.406;9.984;2023-01-08T13:31:28;7.30;99.90
17994;DHT22;9122;48.406;9.984;2023-01-08T13:34:39;7.30;99.90
17994;DHT22;9122;48.406;9.984;2023-01-08T13:37:26;7.30;99.90
17994;DHT22;9122;48.406;9.984;2023-01-08T13:40:37;7.30;99.90
17994;DHT22;9122;48.406;9.984;2023-01-08T13:43:45;7.30;99.90
17994;DHT22;9122;48.406;9.984;2023-01-08T13:46:35;7.30;99.90
17994;DHT22;9122;48.406;9.984;2023-01-08T13:49:35;7.30;99.90
17994;DHT22;9122;48.406;9.984;2023-01-08T13:55:36;7.30;99.90
17994;DHT22;9122;48.406;9.984;2023-01-08T13:58:28;7.30;99.90
17994;DHT22;9122;48.406;9.984;2023-01-08T14:01:13;7.40;99.90
17994;DHT22;9122;48.406;9.984;2023-01-08T14:03:57;7.40;99.90
17994;DHT22;9122;48.406;9.984;2023-01-08T14:06:42;7.40;99.90
17994;DHT22;9122;48.406;9.984;2023-01-08T14:09:26;7.40;99.90
17994;DHT22;9122;48.406;9.984;2023-01-08T14:12:17;7.40;99.90
17994;DHT22;9122;48.406;9.984;2023-01-08T14:15:07;7.50;99.90
17994;DHT22;9122;48.406;9.984;2023-01-08T14:17:56;7.40;99.90
17994;DHT22;9122;48.406;9.984;2023-01-08T14:20:43;7.40;99.90
17994;DHT22;9122;48.406;9.984;2023-01-08T14:23:35;7.50;99.90
17994;DHT22;9122;48.406;9.984;2023-01-08T14:26:27;7.50;99.90
17994;DHT22;9122;48.406;9.984;2023-01-08T14:29:19;7.50;99.90
17994;DHT22;9122;48.406;9.984;2023-01-08T14:32:15;7.50;99.90
17994;DHT22;9122;48.406;9.984;2023-01-08T14:35:00;7.50;99.90
17994;DHT22;9122;48.406;9.984;2023-01-08T14:38:01;7.50;99.90
17994;DHT22;9122;48.406;9.984;2023-01-08T14:41:12;7.50;99.90
17994;DHT22;9122;48.406;9.984;2023-01-08T14:44:00;7.50;99.90
17994;DHT22;9122;48.406;9.984;2023-01-08T14:46:52;7.60;99.90
17994;DHT22;9122;48.406;9.984;2023-01-08T14:49:37;7.50;99.90
17994;DHT22;9122;48.406;9.984;2023-01-08T14:52:27;7.50;99.90
17994;DHT22;9122;48.406;9.984;2023-01-08T14:55:14;7.50;99.90
17994;DHT22;9122;48.406;9.984;2023-01-08T14:58:02;7.50;99.90
17994;DHT22;9122;48.406;9.984;2023-01-08T15:00:55;8.30;99.90
17994;DHT22;9122;48.406;9.984;2023-01-08T15:03:44;7.50;99.90
17994;DHT22;9122;48.406;9.984;2023-01-08T15:06:33;7.20;99.90
17994;DHT22;9122;48.406;9.984;2023-01-08T15:09:22;8.60;99.90
17994;DHT22;9122;48.406;9.984;2023-01-08T15:12:22;7.50;99.90
17994;DHT22;9122;48.406;9.984;2023-01-08T15:15:10;7.60;99.90
17994;DHT22;9122;48.406;9.984;2023-01-08T15:18:04;7.60;99.90
17994;DHT22;9122;48.406;9.984;2023-01-08T15:20:53;7.60;99.90
17994;DHT22;9122;48.406;9.984;2023-01-08T15:23:47;7.60;99.90
17994;DHT22;9122;48.406;9.984;2023-01-08T15:26:33;7.60;99.90
17994;DHT22;9122;48.406;9.984;2023-01-08T15:29:22;7.60;99.90
17994;DHT22;9122;48.406;9.984;2023-01-08T15:32:16;7.60;99.90
17994;DHT22;9122;48.406;9.984;2023-01-08T15:35:15;7.60;99.90
17994;DHT22;9122;48.406;9.984;2023-01-08T15:38:00;7.60;99.90
17994;DHT22;9122;48.406;9.984;2023-01-08T15:40:44;7.60;99.90
17994;DHT22;9122;48.406;9.984;2023-01-08T15:43:30;7.60;99.90
17994;DHT22;9122;48.406;9.984;2023-01-08T15:46:14;7.60;99.90
17994;DHT22;9122;48.406;9.984;2023-01-08T15:48:58;7.60;99.90
17994;DHT22;9122;48.406;9.984;2023-01-08T15:51:46;7.60;99.90
17994;DHT22;9122;48.406;9.984;2023-01-08T15:54:31;7.60;99.90
17994;DHT22;9122;48.406;9.984;2023-01-08T15:57:16;7.60;99.90
17994;DHT22;9122;48.406;9.984;2023-01-08T16:00:13;7.60;99.90
17994;DHT22;9122;48.406;9.984;2023-01-08T16:02:57;7.60;99.90
17994;DHT22;9122;48.406;9.984;2023-01-08T16:05:43;7.60;99.90
17994;DHT22;9122;48.406;9.984;2023-01-08T16:08:27;7.60;99.90
17994;DHT22;9122;48.406;9.984;2023-01-08T16:11:18;7.60;99.90
17994;DHT22;9122;48.406;9.984;2023-01-08T16:14:03;7.60;99.90
17994;DHT22;9122;48.406;9.984;2023-01-08T16:16:47;7.60;99.90
17994;DHT22;9122;48.406;9.984;2023-01-08T16:19:32;7.60;99.90
17994;DHT22;9122;48.406;9.984;2023-01-08T16:22:16;7.60;99.90
17994;DHT22;9122;48.406;9.984;2023-01-08T16:25:04;7.60;99.90
17994;DHT22;9122;48.406;9.984;2023-01-08T16:27:50;7.60;99.90
17994;DHT22;9122;48.406;9.984;2023-01-08T16:30:34;7.60;99.90
17994;DHT22;9122;48.406;9.984;2023-01-08T16:33:21;7.60;99.90
17994;DHT22;9122;48.406;9.984;2023-01-08T16:36:07;7.60;99.90
17994;DHT22;9122;48.406;9.984;2023-01-08T16:38:52;7.70;99.90
17994;DHT22;9122;48.406;9.984;2023-01-08T16:41:36;7.70;99.90
17994;DHT22;9122;48.406;9.984;2023-01-08T16:44:23;7.70;99.90
17994;DHT22;9122;48.406;9.984;2023-01-08T16:47:07;7.60;99.90
17994;DHT22;9122;48.406;9.984;2023-01-08T16:49:52;7.60;99.90
17994;DHT22;9122;48.406;9.984;2023-01-08T16:52:40;7.70;99.90
17994;DHT22;9122;48.406;9.984;2023-01-08T16:55:24;7.70;99.90
17994;DHT22;9122;48.406;9.984;2023-01-08T16:58:09;7.70;99.90
17994;DHT22;9122;48.406;9.984;2023-01-08T17:00:54;7.70;99.90
17994;DHT22;9122;48.406;9.984;2023-01-08T17:03:39;7.70;99.90
17994;DHT22;9122;48.406;9.984;2023-01-08T17:06:23;7.70;99.90
17994;DHT22;9122;48.406;9.984;2023-01-08T17:09:08;7.70;99.90
17994;DHT22;9122;48.406;9.984;2023-01-08T17:11:52;7.70;99.90
17994;DHT22;9122;48.406;9.984;2023-01-08T17:14:37;7.70;99.90
17994;DHT22;9122;48.406;9.984;2023-01-08T17:17:22;7.70;99.90
17994;DHT22;9122;48.406;9.984;2023-01-08T17:20:07;7.70;99.90
17994;DHT22;9122;48.406;9.984;2023-01-08T17:22:52;7.70;99.90
17994;DHT22;9122;48.406;9.984;2023-01-08T17:25:39;7.70;99.90
17994;DHT22;9122;48.406;9.984;2023-01-08T17:28:26;7.70;99.90
17994;DHT22;9122;48.406;9.984;2023-01-08T17:31:16;7.70;99.90
17994;DHT22;9122;48.406;9.984;2023-01-08T17:34:05;7.70;99.90
17994;DHT22;9122;48.406;9.984;2023-01-08T17:36:50;7.80;99.90
17994;DHT22;9122;48.406;9.984;2023-01-08T17:39:35;7.70;99.90
17994;DHT22;9122;48.406;9.984;2023-01-08T17:42:19;7.70;99.90
17994;DHT22;9122;48.406;9.984;2023-01-08T17:45:11;7.70;99.90
17994;DHT22;9122;48.406;9.984;2023-01-08T17:47:56;7.70;99.90
17994;DHT22;9122;48.406;9.984;2023-01-08T17:50:40;7.70;99.90
17994;DHT22;9122;48.406;9.984;2023-01-08T17:53:26;7.70;99.90
17994;DHT22;9122;48.406;9.984;2023-01-08T17:56:11;7.70;99.90
17994;DHT22;9122;48.406;9.984;2023-01-08T17:58:55;7.70;99.90
17994;DHT22;9122;48.406;9.984;2023-01-08T18:01:40;7.70;99.90
17994;DHT22;9122;48.406;9.984;2023-01-08T18:04:25;7.70;99.90
17994;DHT22;9122;48.406;9.984;2023-01-08T18:07:09;7.70;99.90
17994;DHT22;9122;48.406;9.984;2023-01-08T18:09:54;7.70;99.90
17994;DHT22;9122;48.406;9.984;2023-01-08T18:12:40;7.70;99.90
17994;DHT22;9122;48.406;9.984;2023-01-08T18:15:25;7.70;99.90
17994;DHT22;9122;48.406;9.984;2023-01-08T18:18:10;7.70;99.90
17994;DHT22;9122;48.406;9.984;2023-01-08T18:20:54;7.70;99.90
17994;DHT22;9122;48.406;9.984;2023-01-08T18:23:39;7.70;99.90
17994;DHT22;9122;48.406;9.984;2023-01-08T18:26:24;7.70;99.90
17994;DHT22;9122;48.406;9.984;2023-01-08T18:29:08;7.70;99.90
17994;DHT22;9122;48.406;9.984;2023-01-08T18:31:55;7.70;99.90
17994;DHT22;9122;48.406;9.984;2023-01-08T18:34:40;7.70;99.90
17994;DHT22;9122;48.406;9.984;2023-01-08T18:37:24;7.70;99.90
17994;DHT22;9122;48.406;9.984;2023-01-08T18:40:10;7.70;99.90
17994;DHT22;9122;48.406;9.984;2023-01-08T18:42:54;7.70;99.90
17994;DHT22;9122;48.406;9.984;2023-01-08T18:45:39;7.70;99.90
17994;DHT22;9122;48.406;9.984;2023-01-08T18:48:24;7.70;99.90
17994;DHT22;9122;48.406;9.984;2023-01-08T18:51:08;7.70;99.90
17994;DHT22;9122;48.406;9.984;2023-01-08T18:53:53;7.70;99.90
17994;DHT22;9122;48.406;9.984;2023-01-08T18:56:41;7.70;99.90
17994;DHT22;9122;48.406;9.984;2023-01-08T18:59:28;7.70;99.90
17994;DHT22;9122;48.406;9.984;2023-01-08T19:02:19;7.70;99.90
17994;DHT22;9122;48.406;9.984;2023-01-08T19:05:04;7.70;99.90
17994;DHT22;9122;48.406;9.984;2023-01-08T19:07:49;7.70;99.90
17994;DHT22;9122;48.406;9.984;2023-01-08T19:10:38;7.70;99.90
17994;DHT22;9122;48.406;9.984;2023-01-08T19:13:22;7.70;99.90
17994;DHT22;9122;48.406;9.984;2023-01-08T19:16:14;7.70;99.90
17994;DHT22;9122;48.406;9.984;2023-01-08T19:19:01;7.70;99.90
17994;DHT22;9122;48.406;9.984;2023-01-08T19:21:45;7.70;99.90
17994;DHT22;9122;48.406;9.984;2023-01-08T19:24:30;7.70;99.90
17994;DHT22;9122;48.406;9.984;2023-01-08T19:27:14;7.70;99.90
17994;DHT22;9122;48.406;9.984;2023-01-08T19:29:59;7.70;99.90
17994;DHT22;9122;48.406;9.984;2023-01-08T19:32:43;7.70;99.90
17994;DHT22;9122;48.406;9.984;2023-01-08T19:35:29;7.70;99.90
17994;DHT22;9122;48.406;9.984;2023-01-08T19:38:13;7.70;99.90